Time;durP1;ratioP1;P1;durP2;ratioP2;P2;SDS_P1;SDS_P2;PMS_P1;PMS_P2;Temp;Humidity;BMP_temperature;BMP_pressure;BME280_temperature;BME280_humidity;BME280_pressure;Samples;Min_cycle;Max_cycle;Signal;HPM_P1;HPM_P2
2021/09/27 00:02:38;;;;;;;7.45;4.07;;;;;;;;;;21128929;28;20458;-53
2021/09/27 00:12:40;;;;;;;8.38;3.90;;;;;;;;;;21161469;28;20051;-53
2021/09/27 00:22:43;;;;;;;7.10;4.05;;;;;;;;;;21161531;28;20048;-53
2021/09/27 00:32:45;;;;;;;7.40;4.47;;;;;;;;;;21160885;28;20093;-53
2021/09/27 00:42:48;;;;;;;7.13;3.83;;;;;;;;;;21169761;28;20079;-54
2021/09/27 00:52:50;;;;;;;7.45;4.30;;;;;;;;;;21174940;28;20051;-51
2021/09/27 01:02:52;;;;;;;6.95;3.33;;;;;;;;;;21156458;28;20598;-50
2021/09/27 01:12:59;;;;;;;6.73;3.43;;;;;;;;;;21173944;28;20514;-51
2021/09/27 01:23:20;;;;;;;7.95;3.22;;;;;;;;;;21172627;28;20071;-56
2021/09/27 01:33:35;;;;;;;6.07;3.70;;;;;;;;;;21171872;28;20058;-51
2021/09/27 01:43:40;;;;;;;5.25;4.10;;;;;;;;;;21170755;28;20453;-50
2021/09/27 01:54:03;;;;;;;5.38;3.50;;;;;;;;;;21169699;28;20063;-51
2021/09/27 02:04:09;;;;;;;7.03;4.00;;;;;;;;;;21156332;28;20426;-49
2021/09/27 02:14:20;;;;;;;5.60;3.70;;;;;;;;;;21168684;28;20051;-51
2021/09/27 02:24:42;;;;;;;5.88;3.83;;;;;;;;;;21168512;28;20062;-51
2021/09/27 02:35:08;;;;;;;6.63;3.30;;;;;;;;;;21167575;28;20047;-52
2021/09/27 02:45:14;;;;;;;4.85;3.53;;;;;;;;;;21165883;28;20043;-58
2021/09/27 02:55:21;;;;;;;6.47;3.30;;;;;;;;;;21166677;28;20479;-51
2021/09/27 03:05:26;;;;;;;6.32;3.40;;;;;;;;;;21164862;28;20517;-51
2021/09/27 03:15:57;;;;;;;5.18;3.00;;;;;;;;;;21164971;28;20052;-51
2021/09/27 03:26:34;;;;;;;5.95;3.53;;;;;;;;;;21164676;28;20043;-52
2021/09/27 03:37:02;;;;;;;6.70;3.72;;;;;;;;;;21163131;28;20112;-51
2021/09/27 03:47:15;;;;;;;7.80;3.63;;;;;;;;;;21162079;28;20047;-51
2021/09/27 03:57:26;;;;;;;4.68;3.50;;;;;;;;;;21161866;28;20055;-51
2021/09/27 04:07:56;;;;;;;8.55;4.28;;;;;;;;;;21162048;28;20096;-51
2021/09/27 04:18:15;;;;;;;4.57;3.63;;;;;;;;;;21172333;28;20048;-51
2021/09/27 04:28:32;;;;;;;7.50;4.15;;;;;;;;;;21177943;28;20048;-51
2021/09/27 04:38:37;;;;;;;6.95;4.25;;;;;;;;;;21176125;28;20063;-51
2021/09/27 04:49:04;;;;;;;7.07;4.47;;;;;;;;;;21175923;28;20055;-56
2021/09/27 04:59:27;;;;;;;9.10;4.53;;;;;;;;;;21157110;28;20382;-56
2021/09/27 05:09:49;;;;;;;7.70;4.90;;;;;;;;;;21174192;28;20456;-53
2021/09/27 05:20:01;;;;;;;6.50;4.35;;;;;;;;;;21172680;28;20051;-50
2021/09/27 05:30:04;;;;;;;7.65;5.28;;;;;;;;;;21152781;28;20126;-51
2021/09/27 05:40:18;;;;;;;14.93;5.85;;;;;;;;;;21153451;28;20066;-56
2021/09/27 05:50:20;;;;;;;7.13;4.28;;;;;;;;;;21171485;28;20498;-55
2021/09/27 06:00:36;;;;;;;8.10;4.17;;;;;;;;;;21171206;28;20525;-50
2021/09/27 06:10:43;;;;;;;7.77;4.27;;;;;;;;;;21156328;28;20168;-53
2021/09/27 06:21:07;;;;;;;9.40;4.57;;;;;;;;;;21170865;28;20098;-50
2021/09/27 06:31:10;;;;;;;9.27;5.30;;;;;;;;;;21167073;28;20044;-51
2021/09/27 06:41:18;;;;;;;6.10;4.03;;;;;;;;;;21165790;28;20048;-52
2021/09/27 06:51:21;;;;;;;9.40;5.93;;;;;;;;;;21166137;28;20314;-52
2021/09/27 07:01:24;;;;;;;7.93;5.13;;;;;;;;;;21164462;28;20051;-65
2021/09/27 07:11:28;;;;;;;13.07;6.73;;;;;;;;;;21164361;28;20039;-56
2021/09/27 07:21:30;;;;;;;9.60;6.10;;;;;;;;;;21144862;28;20073;-50
2021/09/27 07:31:33;;;;;;;9.95;6.70;;;;;;;;;;21164140;28;20504;-50
2021/09/27 07:41:36;;;;;;;14.07;7.80;;;;;;;;;;21162684;28;20135;-54
2021/09/27 07:51:42;;;;;;;14.18;8.82;;;;;;;;;;21171450;28;20046;-51
2021/09/27 08:01:46;;;;;;;13.25;7.22;;;;;;;;;;21178947;28;20071;-51
2021/09/27 08:11:50;;;;;;;14.43;7.00;;;;;;;;;;21179173;28;20051;-51
2021/09/27 08:21:53;;;;;;;15.25;10.18;;;;;;;;;;21178207;28;20055;-51
2021/09/27 08:31:56;;;;;;;12.20;8.43;;;;;;;;;;21178008;28;20407;-52
2021/09/27 08:42:09;;;;;;;13.60;8.50;;;;;;;;;;21175643;28;20089;-50
2021/09/27 08:52:14;;;;;;;11.50;6.78;;;;;;;;;;21174595;28;20054;-54
2021/09/27 09:02:30;;;;;;;14.32;6.75;;;;;;;;;;21164876;28;20051;-56
2021/09/27 09:12:37;;;;;;;15.63;11.02;;;;;;;;;;21154922;28;20113;-57
2021/09/27 09:22:40;;;;;;;15.48;9.10;;;;;;;;;;21172149;28;20047;-55
2021/09/27 09:32:41;;;;;;;12.15;8.52;;;;;;;;;;21171711;28;20069;-51
2021/09/27 09:42:53;;;;;;;14.32;8.02;;;;;;;;;;21168931;28;20044;-51
2021/09/27 09:52:56;;;;;;;12.55;8.02;;;;;;;;;;21148521;28;20108;-53
2021/09/27 10:02:57;;;;;;;10.00;6.33;;;;;;;;;;21168447;28;20051;-56
2021/09/27 10:13:07;;;;;;;16.77;11.73;;;;;;;;;;21167717;28;20054;-52
2021/09/27 10:23:13;;;;;;;17.77;11.15;;;;;;;;;;21150952;28;20051;-54
2021/09/27 10:33:15;;;;;;;18.98;11.43;;;;;;;;;;21167286;28;20047;-57
2021/09/27 10:43:20;;;;;;;10.45;6.35;;;;;;;;;;21123478;28;20400;-52
2021/09/27 10:53:31;;;;;;;16.15;10.05;;;;;;;;;;21084106;28;20451;-56
2021/09/27 11:03:41;;;;;;;14.07;8.70;;;;;;;;;;21080731;28;20607;-51
2021/09/27 11:13:44;;;;;;;16.00;10.13;;;;;;;;;;21082342;28;20442;-52
2021/09/27 11:23:52;;;;;;;13.75;10.13;;;;;;;;;;21079897;28;20051;-53
2021/09/27 11:34:00;;;;;;;17.33;10.93;;;;;;;;;;21078803;28;20058;-60
2021/09/27 11:44:09;;;;;;;16.88;11.40;;;;;;;;;;21079307;28;20066;-56
2021/09/27 11:54:14;;;;;;;13.85;10.73;;;;;;;;;;21061321;28;20055;-54
2021/09/27 12:04:35;;;;;;;20.05;16.20;;;;;;;;;;21077199;28;20059;-53
2021/09/27 12:14:40;;;;;;;11.07;7.78;;;;;;;;;;21077088;28;20173;-53
2021/09/27 12:24:43;;;;;;;10.20;7.30;;;;;;;;;;21076216;28;20450;-52
2021/09/27 12:34:48;;;;;;;10.25;7.15;;;;;;;;;;21079633;28;20056;-53
2021/09/27 12:45:02;;;;;;;12.05;8.05;;;;;;;;;;21091495;28;20048;-53
2021/09/27 12:55:08;;;;;;;10.65;5.50;;;;;;;;;;21089848;28;20055;-53
2021/09/27 13:05:13;;;;;;;6.47;4.35;;;;;;;;;;21089360;28;20488;-54
2021/09/27 13:15:19;;;;;;;7.25;4.53;;;;;;;;;;21089176;28;20051;-54
2021/09/27 13:25:33;;;;;;;4.28;2.40;;;;;;;;;;21088097;28;20095;-53
2021/09/27 13:35:40;;;;;;;7.47;2.80;;;;;;;;;;21087253;28;20133;-53
2021/09/27 13:45:44;;;;;;;5.68;3.17;;;;;;;;;;21086108;28;20048;-52
2021/09/27 13:55:49;;;;;;;5.82;3.58;;;;;;;;;;21087033;28;20044;-52
2021/09/27 14:05:52;;;;;;;5.43;3.00;;;;;;;;;;21085115;28;20048;-53
2021/09/27 14:16:00;;;;;;;5.72;3.45;;;;;;;;;;21084786;28;20488;-54
2021/09/27 14:26:06;;;;;;;11.63;7.10;;;;;;;;;;21082680;28;20058;-54
2021/09/27 14:36:10;;;;;;;5.70;2.53;;;;;;;;;;21083247;28;20051;-53
2021/09/27 14:46:13;;;;;;;4.30;2.63;;;;;;;;;;21081909;28;20048;-63
2021/09/27 14:56:18;;;;;;;4.43;2.60;;;;;;;;;;21081471;28;20047;-55
2021/09/27 15:06:21;;;;;;;5.07;2.63;;;;;;;;;;21080731;28;20051;-52
2021/09/27 15:16:26;;;;;;;4.88;2.50;;;;;;;;;;21081248;28;20221;-53
2021/09/27 15:26:33;;;;;;;6.97;2.05;;;;;;;;;;21079539;28;20105;-55
2021/09/27 15:36:40;;;;;;;4.10;2.50;;;;;;;;;;21079698;28;20070;-52
2021/09/27 15:46:42;;;;;;;4.13;2.22;;;;;;;;;;21077739;28;20051;-53
2021/09/27 15:56:44;;;;;;;4.43;2.00;;;;;;;;;;21077626;28;20083;-53
2021/09/27 16:06:46;;;;;;;5.72;2.25;;;;;;;;;;21078081;28;20052;-60
2021/09/27 16:16:50;;;;;;;4.47;2.63;;;;;;;;;;21092598;28;20048;-53
2021/09/27 16:26:52;;;;;;;;;;;;;;;;;;21093256;28;20486;-53
2021/09/27 16:36:56;;;;;;;4.67;2.70;;;;;;;;;;21091900;28;19920;-53
2021/09/27 16:47:00;;;;;;;4.45;2.63;;;;;;;;;;21091259;28;20400;-52
2021/09/27 16:57:02;;;;;;;4.97;2.88;;;;;;;;;;21090106;28;20062;-56
2021/09/27 17:07:04;;;;;;;;;;;;;;;;;;21090342;28;20079;-53
2021/09/27 17:27:27;;;;;;;4.85;2.80;;;;;;;;;;21087386;28;20048;-53
2021/09/27 17:37:29;;;;;;;5.90;3.90;;;;;;;;;;21086903;28;20120;-58
2021/09/27 17:47:33;;;;;;;5.40;3.23;;;;;;;;;;21086278;28;20051;-55
2021/09/27 17:57:35;;;;;;;5.72;4.07;;;;;;;;;;21085206;28;20317;-53
2021/09/27 18:07:38;;;;;;;7.20;3.80;;;;;;;;;;21084350;28;20044;-54
2021/09/27 18:17:41;;;;;;;6.05;4.13;;;;;;;;;;21083477;28;20044;-52
2021/09/27 18:27:43;;;;;;;6.77;3.93;;;;;;;;;;21082828;28;20190;-54
2021/09/27 18:37:45;;;;;;;9.82;6.03;;;;;;;;;;21081215;28;20101;-53
2021/09/27 18:47:48;;;;;;;6.60;3.97;;;;;;;;;;21081652;28;20071;-53
2021/09/27 18:57:50;;;;;;;7.07;3.50;;;;;;;;;;21080491;28;20064;-53
2021/09/27 19:07:52;;;;;;;7.30;4.20;;;;;;;;;;21077347;28;20126;-52
2021/09/27 19:17:55;;;;;;;8.77;5.40;;;;;;;;;;21076911;28;20476;-52
2021/09/27 19:27:57;;;;;;;6.73;4.90;;;;;;;;;;21056100;28;20122;-53
2021/09/27 19:37:59;;;;;;;13.50;8.83;;;;;;;;;;21073588;28;20055;-53
2021/09/27 19:48:02;;;;;;;8.27;5.13;;;;;;;;;;21071661;28;20048;-54
2021/09/27 19:58:05;;;;;;;7.90;5.57;;;;;;;;;;21031037;28;1190188;-55
2021/09/27 20:08:07;;;;;;;8.20;5.13;;;;;;;;;;21075333;28;20056;-52
2021/09/27 20:18:09;;;;;;;14.65;7.68;;;;;;;;;;21075456;28;20052;-51
2021/09/27 20:28:13;;;;;;;8.73;5.90;;;;;;;;;;21076087;28;20349;-58
2021/09/27 20:38:16;;;;;;;7.30;4.30;;;;;;;;;;21074055;28;20048;-52
2021/09/27 20:48:19;;;;;;;6.68;4.25;;;;;;;;;;21074190;28;20124;-54
2021/09/27 20:58:22;;;;;;;7.13;4.07;;;;;;;;;;21082254;28;20051;-53
2021/09/27 21:08:24;;;;;;;12.73;3.88;;;;;;;;;;21090406;28;20138;-53
2021/09/27 21:18:27;;;;;;;8.13;5.07;;;;;;;;;;21089652;28;20104;-57
2021/09/27 21:28:29;;;;;;;6.38;3.53;;;;;;;;;;21089251;28;20173;-51
2021/09/27 21:38:31;;;;;;;7.47;5.22;;;;;;;;;;21086925;28;20090;-51
2021/09/27 21:48:33;;;;;;;9.82;4.15;;;;;;;;;;21087396;28;20449;-62
2021/09/27 21:58:35;;;;;;;11.60;5.63;;;;;;;;;;21086337;28;20125;-54
2021/09/27 22:08:38;;;;;;;8.30;5.10;;;;;;;;;;21084795;28;20048;-53
2021/09/27 22:18:40;;;;;;;6.93;4.57;;;;;;;;;;21085212;28;20055;-56
2021/09/27 22:28:42;;;;;;;5.00;3.80;;;;;;;;;;21085877;28;20409;-63
2021/09/27 22:38:45;;;;;;;6.18;4.60;;;;;;;;;;21083638;28;20047;-56
2021/09/27 22:48:48;;;;;;;6.97;4.80;;;;;;;;;;21082718;28;20048;-63
2021/09/27 22:58:50;;;;;;;5.05;3.70;;;;;;;;;;21081622;28;20052;-52
2021/09/27 23:08:52;;;;;;;6.03;4.45;;;;;;;;;;21081129;28;20468;-52
2021/09/27 23:18:54;;;;;;;18.52;14.18;;;;;;;;;;21080590;28;20476;-52
2021/09/27 23:28:56;;;;;;;8.25;3.42;;;;;;;;;;21152078;28;20531;-52
2021/09/27 23:39:01;;;;;;;5.05;3.20;;;;;;;;;;21163402;28;20052;-55
2021/09/27 23:49:06;;;;;;;4.65;3.47;;;;;;;;;;21163631;28;20104;-53
2021/09/27 23:59:08;;;;;;;7.53;4.30;;;;;;;;;;21163725;28;20484;-51
